Meteo Giornale » Osservazioni meteo Stati Uniti (USA) » Fairmont
ore: 21:56 - Osservazioni Meteo Fairmont
Lat. 43° 39' N Lon. 94° 25' W Alt. 354 metri s.l.m.
21 °C
Sereno
Temp. 24 Ore
21 °C
31 °C
Nord
0 Km/h
Dew point 19 °C
Umidità 88 %
Visibilità 10 Km
Il sole sorge alle ore 06:40
Il sole tramonta alle ore 19:55
| Data e Ora | Cielo e Fenomeni | T °C | DP °C | Um. % | Pres. hPa | Vis. km | Vento km/h | |
|---|---|---|---|---|---|---|---|---|
| Oggi h: 21:56 | Sereno | 21 | 19 | 88 | 1014 | 10 | N 0 | |
| Oggi h: 20:56 | Sereno | 22 | 20 | 88 | 1014 | 11 | N 0 | |
| Oggi h: 19:56 | Sereno | 24 | 20 | 78 | 1013 | 10 | N/NE 9.3 | |
| Oggi h: 18:56 | Sereno | 28 | 21 | 65 | 1013 | 10 | NE 7.4 | |
| Oggi h: 17:56 | Sereno | 30 | 19 | 51 | 1013 | 10 | N 5.5 | |
| Oggi h: 16:56 | Sereno | 31 | 18 | 45 | 1013 | 10 | N 5.5 | |
| Oggi h: 15:56 | Sereno | 29 | 17 | 48 | 1013 | 10 | N 9.3 | |
| Oggi h: 14:56 | Sereno | 29 | 19 | 54 | 1012 | 10 | N/NO 13 | |
| Oggi h: 13:56 | Sereno | 27 | 22 | 74 | 1012 | 10 | N/NO 18.5 | |
| Oggi h: 12:56 | Sereno | 26 | 22 | 78 | 1012 | 10 | N/NO 16.7 | |
| Oggi h: 11:56 | Poco Nuvoloso | 26 | 23 | 83 | 1013 | 10 | N/NO 16.7 | |
| Oggi h: 10:56 | Sereno | 26 | 23 | 83 | 1012 | 10 | N/NO 13 | |
| Oggi h: 09:56 | Sereno | 24 | 23 | 94 | 1012 | 10 | NO 11.1 | |
| Oggi h: 08:56 | Sereno | 23 | 22 | 94 | 1011 | 10 | NO 14.8 | |
| Oggi h: 07:56 | Sereno | 22 | 21 | 94 | 1010 | 10 | N 5.5 | |
| Oggi h: 06:56 | Sereno | 22 | 21 | 94 | 1009 | 10 | N 5.5 | |
| Oggi h: 05:56 | Sereno | 22 | 21 | 94 | 1009 | 10 | S/SO 11.1 | |
| Oggi h: 04:56 | Sereno | 22 | 21 | 94 | 1009 | 13 | S/SO 11.1 | |
| Oggi h: 03:56 | Sereno | 22 | 21 | 94 | 1009 | 13 | S/SO 9.3 | |
| Oggi h: 02:56 | Foschia | 21 | 21 | 100 | 1008 | 10 | S/SO 7.4 | |
| Oggi h: 01:56 | Foschia | 22 | 21 | 94 | 1008 | 10 | S 11.1 | |
| Oggi h: 00:56 | Foschia | 22 | 22 | 100 | 1009 | 10 | S 11.1 | |
| Ieri h: 23:56 | Sereno | 22 | 22 | 100 | 1009 | 13 | S/SE 13 | |
| Ieri h: 22:56 | Sereno | 23 | 22 | 94 | 1009 | 10 | S 13 | |



